createdAt,value
2022-10-22T00:00:12.763Z,100374.63
2022-10-22T00:02:40.274Z,100437.75
2022-10-22T00:05:07.704Z,100462.50
2022-10-22T00:07:35.292Z,100418.41
2022-10-22T00:10:03.495Z,100459.78
2022-10-22T00:12:30.711Z,100413.53
2022-10-22T00:14:58.053Z,100420.75
2022-10-22T00:17:25.010Z,100460.56
2022-10-22T00:19:52.158Z,100439.56
2022-10-22T00:22:19.214Z,100404.59
2022-10-22T00:24:48.643Z,100461.63
2022-10-22T00:27:15.733Z,100450.03
2022-10-22T00:29:42.788Z,100440.88
2022-10-22T00:32:12.105Z,100454.84
2022-10-22T00:34:39.085Z,100221.84
2022-10-22T00:37:06.095Z,100340.03
2022-10-22T00:39:33.151Z,100359.16
2022-10-22T00:42:00.230Z,100432.88
2022-10-22T00:45:04.952Z,100444.63
2022-10-22T00:47:37.875Z,100411.84
2022-10-22T00:50:09.575Z,100442.59
2022-10-22T00:52:37.333Z,100313.91
2022-10-22T00:55:06.134Z,100397.50
2022-10-22T00:57:34.927Z,100318.78
2022-10-22T01:00:02.811Z,100417.34
2022-10-22T01:02:31.270Z,100415.59
2022-10-22T01:04:58.206Z,100344.50
2022-10-22T01:07:26.160Z,100442.00
2022-10-22T01:10:11.181Z,100438.69
2022-10-22T01:12:51.246Z,100446.47
2022-10-22T01:15:45.693Z,100426.41
2022-10-22T01:18:23.382Z,100444.00
2022-10-22T01:20:59.417Z,100439.72
2022-10-22T01:24:03.572Z,100444.13
2022-10-22T01:26:51.749Z,100438.78
2022-10-22T01:29:29.509Z,100413.94
2022-10-22T01:32:07.569Z,100405.81
2022-10-22T01:34:35.247Z,100445.41
2022-10-22T01:37:03.767Z,100450.75
2022-10-22T01:39:31.588Z,100441.03
2022-10-22T01:41:58.902Z,100448.22
2022-10-22T01:44:28.712Z,100414.03
2022-10-22T01:47:28.620Z,100453.50
2022-10-22T01:50:28.782Z,100457.03
2022-10-22T01:53:10.610Z,100356.63
2022-10-22T01:56:04.652Z,100441.13
2022-10-22T01:58:42.029Z,100432.84
2022-10-22T02:01:39.780Z,100458.50
2022-10-22T02:04:15.875Z,100415.97
2022-10-22T02:06:45.566Z,100452.22
2022-10-22T02:09:16.669Z,100463.72
2022-10-22T02:11:45.646Z,100468.94
2022-10-22T02:14:14.185Z,100390.59
2022-10-22T02:16:44.847Z,100467.13
2022-10-22T02:19:41.077Z,100462.84
2022-10-22T02:22:08.460Z,100265.63
2022-10-22T02:24:36.614Z,100466.19
2022-10-22T02:27:17.199Z,100463.66
2022-10-22T02:30:00.242Z,100367.00
2022-10-22T02:32:32.928Z,100427.81
2022-10-22T02:35:01.574Z,100461.13
2022-10-22T02:37:29.944Z,100479.50
2022-10-22T02:39:56.846Z,100392.47
2022-10-22T02:42:26.544Z,100472.41
2022-10-22T02:44:53.561Z,100343.94
2022-10-22T02:47:20.697Z,100442.59
2022-10-22T02:49:47.916Z,100408.19
2022-10-22T02:52:14.937Z,100464.75
2022-10-22T02:54:42.006Z,100475.38
2022-10-22T02:57:09.233Z,100484.81
2022-10-22T02:59:36.231Z,100383.47
2022-10-22T03:02:03.457Z,100469.06
2022-10-22T03:04:30.498Z,100461.03
2022-10-22T03:06:57.641Z,100468.84
2022-10-22T03:09:26.810Z,100378.06
2022-10-22T03:11:53.838Z,100442.41
2022-10-22T03:14:20.829Z,100384.22
2022-10-22T03:16:47.839Z,100357.19
2022-10-22T03:19:14.890Z,100435.91
2022-10-22T03:21:50.407Z,100407.81
2022-10-22T03:24:22.332Z,100368.00
2022-10-22T03:26:51.948Z,100482.63
2022-10-22T03:29:21.776Z,100442.38
2022-10-22T03:31:48.683Z,100341.91
2022-10-22T03:34:15.757Z,100474.13
2022-10-22T03:36:42.977Z,100468.78
2022-10-22T03:39:12.362Z,100426.56
2022-10-22T03:41:39.576Z,100447.75
2022-10-22T03:44:07.113Z,100426.66
2022-10-22T03:46:34.075Z,100463.72
2022-10-22T03:49:01.003Z,100464.75
2022-10-22T03:51:29.067Z,100474.53
2022-10-22T03:53:56.214Z,100475.19
2022-10-22T03:56:23.574Z,100434.44
2022-10-22T03:58:50.763Z,100454.72
2022-10-22T04:01:17.739Z,100446.88
2022-10-22T04:03:44.711Z,100446.97
2022-10-22T04:06:13.333Z,100458.16
2022-10-22T04:08:41.832Z,100381.56
2022-10-22T04:11:09.544Z,100151.13
2022-10-22T04:13:36.907Z,100406.91
2022-10-22T04:16:07.936Z,100437.09
2022-10-22T04:18:34.985Z,100454.94
2022-10-22T04:21:01.996Z,100396.06
2022-10-22T04:23:31.492Z,100428.88
2022-10-22T04:26:03.892Z,100389.16
2022-10-22T04:28:31.013Z,100402.94
2022-10-22T04:30:58.000Z,100478.00
2022-10-22T04:33:25.254Z,100446.09
2022-10-22T04:35:52.160Z,100471.13
2022-10-22T04:38:19.132Z,100485.09
2022-10-22T04:40:46.036Z,100483.34
2022-10-22T04:43:13.055Z,100385.56
2022-10-22T04:45:40.079Z,100442.59
2022-10-22T04:48:07.322Z,100500.56
2022-10-22T04:50:34.351Z,100268.53
2022-10-22T04:53:01.613Z,100471.84
2022-10-22T04:55:28.629Z,100494.66
2022-10-22T04:57:55.519Z,100373.19
2022-10-22T05:00:22.627Z,100430.47
2022-10-22T05:02:51.196Z,100476.28
2022-10-22T05:05:18.303Z,100500.06
2022-10-22T05:07:45.309Z,100416.19
2022-10-22T05:10:12.348Z,100379.28
2022-10-22T05:12:39.411Z,100442.78
2022-10-22T05:15:06.991Z,100457.63
2022-10-22T05:17:37.433Z,100492.84
2022-10-22T05:20:05.497Z,100491.94
2022-10-22T05:22:34.412Z,100499.13
2022-10-22T05:25:01.790Z,100481.16
2022-10-22T05:27:30.450Z,100426.66
2022-10-22T05:29:57.453Z,100481.22
2022-10-22T05:32:24.472Z,100417.94
2022-10-22T05:34:51.417Z,100464.78
2022-10-22T05:37:18.374Z,100517.31
2022-10-22T05:39:45.447Z,100459.56
2022-10-22T05:42:12.498Z,100510.66
2022-10-22T05:44:41.004Z,100509.72
2022-10-22T05:47:08.095Z,100394.41
2022-10-22T05:49:35.357Z,100511.66
2022-10-22T05:52:02.348Z,100390.03
2022-10-22T05:54:29.361Z,100510.59
2022-10-22T05:56:56.302Z,100514.63
2022-10-22T05:59:23.253Z,100491.09
2022-10-22T06:01:50.328Z,100493.91
2022-10-22T06:04:18.152Z,100502.06
2022-10-22T06:06:50.729Z,100352.78
2022-10-22T06:09:25.233Z,100515.00
2022-10-22T06:11:52.455Z,100522.41
2022-10-22T06:14:20.526Z,100481.34
2022-10-22T06:16:47.582Z,100523.53
2022-10-22T06:19:18.393Z,100470.13
2022-10-22T06:21:45.874Z,100485.50
2022-10-22T06:24:13.344Z,100527.16
2022-10-22T06:26:41.097Z,100503.66
2022-10-22T06:29:08.812Z,100478.47
2022-10-22T06:31:38.516Z,100500.59
2022-10-22T06:34:07.974Z,100532.28
2022-10-22T06:36:35.496Z,100538.59
2022-10-22T06:39:03.031Z,100496.88
2022-10-22T06:41:29.946Z,100492.25
2022-10-22T06:43:58.111Z,100504.94
2022-10-22T06:46:26.365Z,100525.75
2022-10-22T06:49:03.108Z,100519.88
2022-10-22T06:51:30.107Z,100491.97
2022-10-22T06:53:58.650Z,100461.31
2022-10-22T06:56:27.667Z,100505.34
2022-10-22T06:58:56.038Z,100527.03
2022-10-22T07:01:29.372Z,100536.59
2022-10-22T07:03:57.040Z,100506.72
2022-10-22T07:06:25.838Z,100482.75
2022-10-22T07:08:54.783Z,100301.63
2022-10-22T07:11:30.970Z,100360.16
2022-10-22T07:14:00.893Z,100389.91
2022-10-22T07:16:31.072Z,100545.31
2022-10-22T07:18:59.701Z,100533.81
2022-10-22T07:21:26.709Z,100458.94
2022-10-22T07:23:53.880Z,100455.84
2022-10-22T07:26:21.161Z,100516.75
2022-10-22T07:28:48.297Z,100545.09
2022-10-22T07:31:16.994Z,100534.59
2022-10-22T07:33:44.235Z,100521.47
2022-10-22T07:36:18.118Z,100539.31
2022-10-22T07:38:53.738Z,100536.88
2022-10-22T07:41:20.697Z,100441.25
2022-10-22T07:43:47.584Z,100460.50
2022-10-22T07:46:14.471Z,100536.94
2022-10-22T07:48:41.687Z,100547.34
2022-10-22T07:51:08.688Z,100547.44
2022-10-22T07:53:35.830Z,100518.19
2022-10-22T07:56:02.971Z,100520.94
2022-10-22T07:58:30.134Z,100528.97
2022-10-22T08:01:01.159Z,100546.56
2022-10-22T08:03:29.405Z,100543.69
2022-10-22T08:05:56.369Z,100551.75
2022-10-22T08:08:27.125Z,100544.88
2022-10-22T08:10:59.534Z,100519.22
2022-10-22T08:13:27.614Z,100521.81
2022-10-22T08:15:57.375Z,100523.72
2022-10-22T08:18:25.071Z,100417.75
2022-10-22T08:20:52.392Z,100506.47
2022-10-22T08:23:24.406Z,100541.22
2022-10-22T08:25:54.684Z,100541.59
2022-10-22T08:28:22.363Z,100534.34
2022-10-22T08:30:49.482Z,100526.00
2022-10-22T08:33:16.747Z,100552.91
2022-10-22T08:35:51.329Z,100524.72
2022-10-22T08:38:19.534Z,100548.69
2022-10-22T08:40:56.990Z,100526.88
2022-10-22T08:43:51.746Z,100543.75
2022-10-22T08:46:56.153Z,100543.13
2022-10-22T08:49:27.598Z,100478.56
2022-10-22T08:51:57.601Z,100543.41
2022-10-22T08:54:43.143Z,100542.78
2022-10-22T08:57:10.044Z,100546.13
2022-10-22T08:59:46.284Z,100492.44
2022-10-22T09:02:25.552Z,100528.81
2022-10-22T09:05:03.843Z,100361.84
2022-10-22T09:07:30.995Z,100516.34
2022-10-22T09:10:00.453Z,100467.03
2022-10-22T09:12:28.709Z,100532.72
2022-10-22T09:14:57.085Z,100552.38
2022-10-22T09:17:38.726Z,100412.66
2022-10-22T09:20:34.562Z,100536.44
2022-10-22T09:23:24.795Z,100547.41
2022-10-22T09:25:52.772Z,100446.72
2022-10-22T09:28:19.691Z,100516.13
2022-10-22T09:30:46.830Z,100502.78
2022-10-22T09:33:24.701Z,100506.22
2022-10-22T09:36:03.664Z,100517.63
2022-10-22T09:38:34.418Z,100533.47
2022-10-22T09:41:05.165Z,100501.97
2022-10-22T09:43:33.809Z,100510.66
2022-10-22T09:46:04.833Z,100505.44
2022-10-22T09:48:48.799Z,100440.81
2022-10-22T09:51:21.110Z,100293.13
2022-10-22T09:53:57.074Z,100524.44
2022-10-22T09:56:29.043Z,100527.41
2022-10-22T09:58:58.015Z,100526.59
2022-10-22T10:01:31.873Z,100396.66
2022-10-22T10:04:09.880Z,100507.69
2022-10-22T10:06:40.515Z,100524.50
2022-10-22T10:09:25.721Z,100505.53
2022-10-22T10:12:31.481Z,100522.34
2022-10-22T10:15:36.742Z,100512.81
2022-10-22T10:18:06.369Z,100443.38
2022-10-22T10:21:10.755Z,100504.03
2022-10-22T10:23:50.026Z,100445.25
2022-10-22T10:26:43.815Z,100478.78
2022-10-22T10:29:16.039Z,100490.09
2022-10-22T10:32:09.499Z,100493.41
2022-10-22T10:35:03.695Z,100457.47
2022-10-22T10:37:43.950Z,100451.31
2022-10-22T10:40:29.339Z,100504.25
2022-10-22T10:43:02.964Z,100507.69
2022-10-22T10:45:42.508Z,100498.84
2022-10-22T10:48:46.346Z,100508.53
2022-10-22T10:51:38.357Z,100511.91
2022-10-22T10:54:23.855Z,100504.84
2022-10-22T10:56:53.684Z,100505.41
2022-10-22T11:00:02.037Z,100504.53
2022-10-22T11:05:29.015Z,100498.25
2022-10-22T11:08:11.581Z,100494.81
2022-10-22T11:10:45.722Z,100407.75
2022-10-22T11:13:42.990Z,100440.16
2022-10-22T11:16:24.892Z,100483.44
2022-10-22T11:19:22.642Z,100438.44
2022-10-22T11:22:06.294Z,100486.16
2022-10-22T11:24:43.414Z,100460.13
2022-10-22T11:27:29.329Z,100485.94
2022-10-22T11:30:15.169Z,100484.00
2022-10-22T11:32:46.527Z,100466.31
2022-10-22T11:35:20.214Z,100477.69
2022-10-22T11:37:52.723Z,100440.63
2022-10-22T11:40:22.303Z,100476.69
2022-10-22T11:42:59.196Z,100461.06
2022-10-22T11:45:30.257Z,100415.16
2022-10-22T11:47:59.086Z,100473.25
2022-10-22T11:50:27.687Z,100465.22
2022-10-22T11:53:04.001Z,100446.94
2022-10-22T11:55:51.905Z,100383.63
2022-10-22T11:58:49.524Z,100470.56
2022-10-22T12:01:27.014Z,100448.47
2022-10-22T12:04:23.674Z,100472.34
2022-10-22T12:07:02.440Z,100462.38
2022-10-22T12:09:32.984Z,100466.75
2022-10-22T12:12:12.579Z,100461.72
2022-10-22T12:14:56.582Z,100450.41
2022-10-22T12:17:25.141Z,100461.63
2022-10-22T12:20:19.020Z,100422.91
2022-10-22T12:22:46.912Z,100456.44
2022-10-22T12:25:22.349Z,100427.28
2022-10-22T12:27:57.328Z,100341.22
2022-10-22T12:30:27.456Z,100449.19
2022-10-22T12:33:02.834Z,100444.78
2022-10-22T12:35:43.701Z,100408.78
2022-10-22T12:38:20.373Z,100445.56
2022-10-22T12:40:49.212Z,100328.13
2022-10-22T12:43:19.372Z,100397.66
2022-10-22T12:45:49.601Z,100418.59
2022-10-22T12:48:23.993Z,100408.13
2022-10-22T12:50:58.633Z,100419.41
2022-10-22T12:53:31.109Z,100428.28
2022-10-22T12:56:05.491Z,100350.97
2022-10-22T12:58:40.746Z,100355.50
2022-10-22T13:01:10.770Z,100395.81
2022-10-22T13:03:45.130Z,100431.06
2022-10-22T13:06:19.286Z,100410.69
2022-10-22T13:09:25.415Z,100422.09
2022-10-22T13:11:58.373Z,100423.63
2022-10-22T13:14:25.452Z,100418.41
2022-10-22T13:17:38.238Z,100426.56
2022-10-22T13:20:24.217Z,100386.94
2022-10-22T13:23:03.430Z,100414.28
2022-10-22T13:25:40.722Z,100408.13
2022-10-22T13:28:22.035Z,100418.50
2022-10-22T13:31:15.606Z,100381.28
2022-10-22T13:33:45.253Z,100417.25
2022-10-22T13:36:15.503Z,100420.63
2022-10-22T13:38:43.798Z,100421.38
2022-10-22T13:41:24.681Z,100390.75
2022-10-22T13:43:52.726Z,100408.06
2022-10-22T13:46:20.901Z,100393.34
2022-10-22T13:48:49.783Z,100415.31
2022-10-22T13:51:20.660Z,100389.72
2022-10-22T13:53:48.935Z,100375.63
2022-10-22T13:56:18.447Z,100387.09
2022-10-22T13:58:47.518Z,100422.13
2022-10-22T14:01:22.113Z,100331.78
2022-10-22T14:03:55.524Z,100400.31
2022-10-22T14:06:23.231Z,100374.66
2022-10-22T14:08:58.548Z,100390.50
2022-10-22T14:11:27.452Z,100297.00
2022-10-22T14:13:54.979Z,100402.47
2022-10-22T14:16:24.463Z,100404.09
2022-10-22T14:18:51.885Z,100363.44
2022-10-22T14:21:19.329Z,100391.47
2022-10-22T14:23:48.491Z,100414.25
2022-10-22T14:26:35.150Z,100374.03
2022-10-22T14:29:11.454Z,100409.06
2022-10-22T14:31:44.501Z,100311.25
2022-10-22T14:34:13.728Z,100409.75
2022-10-22T14:36:44.184Z,100384.34
2022-10-22T14:39:12.256Z,100398.19
2022-10-22T14:41:39.778Z,100408.69
2022-10-22T14:44:06.761Z,100291.50
2022-10-22T14:46:34.024Z,100392.47
2022-10-22T14:49:01.090Z,100383.00
2022-10-22T14:51:28.153Z,100415.38
2022-10-22T14:53:55.080Z,100275.25
2022-10-22T14:56:22.138Z,100406.81
2022-10-22T14:58:50.083Z,100402.41
2022-10-22T15:01:18.459Z,100389.34
2022-10-22T15:03:45.483Z,100368.06
2022-10-22T15:06:12.389Z,100411.19
2022-10-22T15:08:39.656Z,100412.94
2022-10-22T15:11:10.862Z,100312.59
2022-10-22T15:13:38.080Z,100375.22
2022-10-22T15:16:10.634Z,100333.00
2022-10-22T15:18:37.952Z,100392.69
2022-10-22T15:21:08.363Z,100372.06
2022-10-22T15:23:36.749Z,100386.19
2022-10-22T15:26:03.862Z,100388.66
2022-10-22T15:28:32.469Z,100408.88
2022-10-22T15:31:00.928Z,100403.69
2022-10-22T15:33:29.451Z,100402.78
2022-10-22T15:35:57.415Z,100372.81
2022-10-22T15:41:08.531Z,100387.22
2022-10-22T15:43:35.879Z,100320.31
2022-10-22T15:46:13.024Z,100371.31
2022-10-22T15:48:40.127Z,100408.94
2022-10-22T15:51:18.833Z,100400.78
2022-10-22T15:53:57.311Z,100319.78
2022-10-22T15:56:26.283Z,100423.25
2022-10-22T15:58:58.815Z,100413.78
2022-10-22T16:01:27.149Z,100399.53
2022-10-22T16:04:00.288Z,100403.03
2022-10-22T16:06:28.405Z,100401.03
2022-10-22T16:08:59.211Z,100422.50
2022-10-22T16:11:27.719Z,100414.72
2022-10-22T16:13:59.640Z,100385.63
2022-10-22T16:16:29.019Z,100412.16
2022-10-22T16:18:56.379Z,100406.56
2022-10-22T16:21:24.018Z,100416.16
2022-10-22T16:23:51.692Z,100409.53
2022-10-22T16:26:19.523Z,100403.19
2022-10-22T16:28:47.775Z,100407.66
2022-10-22T16:31:17.550Z,100390.78
2022-10-22T16:33:49.221Z,100420.78
2022-10-22T16:36:19.440Z,100402.34
2022-10-22T16:38:47.729Z,100426.16
2022-10-22T16:41:23.687Z,100418.56
2022-10-22T16:43:55.225Z,100410.78
2022-10-22T16:46:23.373Z,100421.47
2022-10-22T16:48:52.856Z,100417.25
2022-10-22T16:51:22.871Z,100333.91
2022-10-22T16:53:52.666Z,100386.63
2022-10-22T16:56:20.608Z,100358.59
2022-10-22T16:58:50.279Z,100396.56
2022-10-22T17:01:19.109Z,100400.22
2022-10-22T17:03:46.572Z,100401.84
2022-10-22T17:06:14.144Z,100386.91
2022-10-22T17:08:42.186Z,100396.69
2022-10-22T17:11:17.381Z,100392.47
2022-10-22T17:13:47.137Z,100320.16
2022-10-22T17:16:16.212Z,100282.47
2022-10-22T17:21:19.183Z,100305.25
2022-10-22T17:23:46.809Z,100341.34
2022-10-22T17:26:20.927Z,100372.72
2022-10-22T17:28:49.187Z,100364.06
2022-10-22T17:31:18.211Z,100372.06
2022-10-22T17:33:46.218Z,100351.00
2022-10-22T17:36:14.114Z,100266.88
2022-10-22T17:38:43.576Z,100366.06
2022-10-22T17:41:17.954Z,100382.81
2022-10-22T17:46:21.326Z,100155.22
2022-10-22T17:48:52.855Z,100340.00
2022-10-22T17:51:21.115Z,100183.78
2022-10-22T17:53:50.819Z,100367.34
2022-10-22T17:56:21.185Z,100369.09
2022-10-22T17:58:48.510Z,100352.50
2022-10-22T18:01:18.687Z,100326.22
2022-10-22T18:03:45.933Z,100366.63
2022-10-22T18:06:13.721Z,100351.69
2022-10-22T18:08:41.237Z,100299.06
2022-10-22T18:11:14.090Z,100343.09
2022-10-22T18:13:41.187Z,100325.63
2022-10-22T18:16:08.490Z,100357.97
2022-10-22T18:18:36.612Z,100294.66
2022-10-22T18:21:05.245Z,100211.38
2022-10-22T18:23:33.628Z,100330.75
2022-10-22T18:26:00.676Z,100300.03
2022-10-22T18:28:27.805Z,100344.00
2022-10-22T18:30:54.887Z,100285.91
2022-10-22T18:33:24.440Z,100330.84
2022-10-22T18:35:52.820Z,100303.78
2022-10-22T18:38:22.070Z,100342.34
2022-10-22T18:40:50.497Z,100340.72
2022-10-22T18:43:18.238Z,100331.19
2022-10-22T18:45:47.460Z,100215.22
2022-10-22T18:48:19.164Z,100267.66
2022-10-22T18:50:47.468Z,100296.94
2022-10-22T18:53:16.738Z,100309.25
2022-10-22T18:55:44.642Z,100336.41
2022-10-22T18:58:11.517Z,100313.97
2022-10-22T19:00:39.401Z,100273.47
2022-10-22T19:03:08.916Z,100312.16
2022-10-22T19:05:44.159Z,100299.31
2022-10-22T19:08:12.662Z,100218.47
2022-10-22T19:10:39.905Z,100288.34
2022-10-22T19:13:06.997Z,100294.53
2022-10-22T19:15:34.239Z,100233.13
2022-10-22T19:18:01.213Z,100304.06
2022-10-22T19:20:28.307Z,100326.06
2022-10-22T19:22:56.691Z,100264.59
2022-10-22T19:25:24.428Z,100300.00
2022-10-22T19:27:51.428Z,100269.34
2022-10-22T19:30:20.275Z,100218.00
2022-10-22T19:32:48.999Z,100300.00
2022-10-22T19:35:16.635Z,100298.28
2022-10-22T19:37:47.567Z,100315.66
2022-10-22T19:40:15.867Z,100272.59
2022-10-22T19:42:44.646Z,100314.06
2022-10-22T19:45:12.063Z,100298.44
2022-10-22T19:47:39.114Z,100292.19
2022-10-22T19:50:06.663Z,100319.22
2022-10-22T19:52:33.716Z,100315.59
2022-10-22T19:55:00.878Z,100314.75
2022-10-22T19:57:28.025Z,100319.06
2022-10-22T19:59:55.153Z,100307.28
2022-10-22T20:02:22.277Z,100313.16
2022-10-22T20:04:50.584Z,100236.13
2022-10-22T20:07:18.030Z,100328.22
2022-10-22T20:09:44.983Z,100273.94
2022-10-22T20:12:11.933Z,100323.13
2022-10-22T20:14:40.049Z,100304.72
2022-10-22T20:17:07.072Z,100311.72
2022-10-22T20:19:34.046Z,100293.44
2022-10-22T20:22:01.154Z,100309.25
2022-10-22T20:24:28.181Z,100308.47
2022-10-22T20:26:55.207Z,100317.41
2022-10-22T20:29:22.187Z,100294.63
2022-10-22T20:31:49.475Z,100278.88
2022-10-22T20:34:16.642Z,100311.25
2022-10-22T20:36:43.891Z,100253.50
2022-10-22T20:39:13.497Z,100264.03
2022-10-22T20:41:41.141Z,100294.69
2022-10-22T20:44:13.159Z,100309.50
2022-10-22T20:46:40.189Z,100275.13
2022-10-22T20:49:15.653Z,100201.50
2022-10-22T20:51:43.154Z,100296.94
2022-10-22T20:54:10.783Z,100294.81
2022-10-22T20:56:39.501Z,100242.44
2022-10-22T20:59:08.675Z,100297.69
2022-10-22T21:01:45.270Z,100276.75
2022-10-22T21:04:12.873Z,100201.97
2022-10-22T21:06:41.798Z,100241.38
2022-10-22T21:09:10.664Z,100274.09
2022-10-22T21:11:39.050Z,100253.75
2022-10-22T21:14:08.315Z,100253.69
2022-10-22T21:16:36.365Z,100297.81
2022-10-22T21:19:03.453Z,100173.31
2022-10-22T21:21:30.450Z,100211.03
2022-10-22T21:23:57.499Z,100287.56
2022-10-22T21:26:24.783Z,100249.81
2022-10-22T21:28:51.828Z,100279.00
2022-10-22T21:31:22.197Z,100234.94
2022-10-22T21:33:50.225Z,100205.06
2022-10-22T21:36:21.637Z,100149.81
2022-10-22T21:38:53.757Z,100278.88
2022-10-22T21:41:23.227Z,100278.09
2022-10-22T21:43:50.886Z,100261.72
2022-10-22T21:46:20.968Z,100257.22
2022-10-22T21:48:52.568Z,100218.56
2022-10-22T21:51:20.847Z,100196.75
2022-10-22T21:53:49.249Z,100257.41
2022-10-22T21:56:22.748Z,100247.13
2022-10-22T21:58:50.028Z,100247.13
2022-10-22T22:01:17.580Z,100236.53
2022-10-22T22:03:49.127Z,100245.44
2022-10-22T22:06:21.201Z,100233.03
2022-10-22T22:08:49.930Z,100234.13
2022-10-22T22:11:20.348Z,100208.53
2022-10-22T22:13:48.909Z,100231.16
2022-10-22T22:16:27.069Z,100154.69
2022-10-22T22:19:01.077Z,100182.69
2022-10-22T22:21:28.786Z,100237.88
2022-10-22T22:23:56.900Z,100224.91
2022-10-22T22:26:29.618Z,100198.75
2022-10-22T22:28:59.333Z,100183.84
2022-10-22T22:31:32.344Z,100189.25
2022-10-22T22:34:03.350Z,100206.94
2022-10-22T22:36:34.824Z,100200.00
2022-10-22T22:39:03.221Z,100175.44
2022-10-22T22:41:30.193Z,100193.78
2022-10-22T22:43:57.255Z,100159.63
2022-10-22T22:46:24.445Z,100195.81
2022-10-22T22:48:51.680Z,100206.41
2022-10-22T22:51:20.504Z,100204.47
2022-10-22T22:53:47.757Z,100201.13
2022-10-22T22:56:16.129Z,100200.38
2022-10-22T22:58:44.044Z,100192.56
2022-10-22T23:01:14.687Z,100169.78
2022-10-22T23:03:43.347Z,100107.41
2022-10-22T23:06:10.473Z,100121.53
2022-10-22T23:08:37.755Z,100114.66
2022-10-22T23:11:11.649Z,100178.66
2022-10-22T23:13:41.535Z,100175.97
2022-10-22T23:16:20.056Z,100054.97
2022-10-22T23:18:48.764Z,100171.44
2022-10-22T23:21:18.945Z,99971.53
2022-10-22T23:23:48.269Z,100131.28
2022-10-22T23:26:21.582Z,100151.56
2022-10-22T23:28:49.308Z,100155.84
2022-10-22T23:31:18.628Z,100146.16
2022-10-22T23:33:46.119Z,100162.84
2022-10-22T23:36:13.501Z,100072.28
2022-10-22T23:38:41.767Z,100095.25
2022-10-22T23:41:09.420Z,100126.78
2022-10-22T23:43:37.929Z,100153.22
2022-10-22T23:46:07.289Z,100121.56
2022-10-22T23:48:34.895Z,100120.84
2022-10-22T23:51:10.612Z,100135.94
2022-10-22T23:53:38.407Z,100143.69
2022-10-22T23:56:07.953Z,100009.69
2022-10-22T23:58:35.970Z,100139.25
